Time;durP1;ratioP1;P1;durP2;ratioP2;P2;SDS_P1;SDS_P2;PMS_P1;PMS_P2;Temp;Humidity;BMP_temperature;BMP_pressure;BME280_temperature;BME280_humidity;BME280_pressure;Samples;Min_cycle;Max_cycle;Signal;HPM_P1;HPM_P2
2022/09/30 00:01:33;;;;;;;1.45;0.50;;;22.50;57.70;;;;;;5026164;28;20030;-47
2022/09/30 00:03:59;;;;;;;1.40;0.40;;;22.50;57.70;;;;;;5028220;28;20033;-48
2022/09/30 00:06:26;;;;;;;2.33;0.40;;;22.50;57.60;;;;;;5031429;28;20037;-50
2022/09/30 00:08:52;;;;;;;0.93;0.50;;;22.50;57.60;;;;;;5029261;28;20066;-48
2022/09/30 00:11:20;;;;;;;1.45;0.55;;;22.50;57.60;;;;;;5026418;28;20287;-48
2022/09/30 00:13:47;;;;;;;0.88;0.50;;;22.50;57.60;;;;;;5031491;28;20026;-48
2022/09/30 00:16:14;;;;;;;1.23;0.63;;;22.50;57.60;;;;;;5024095;28;20052;-48
2022/09/30 00:18:40;;;;;;;1.25;0.40;;;22.50;57.60;;;;;;5014754;28;20127;-50
2022/09/30 00:21:07;;;;;;;1.67;0.60;;;22.50;57.60;;;;;;5017414;28;20111;-48
2022/09/30 00:23:33;;;;;;;2.15;0.50;;;22.50;57.60;;;;;;5032648;28;20276;-49
2022/09/30 00:26:01;;;;;;;3.92;0.60;;;22.50;57.80;;;;;;5028364;28;20038;-46
2022/09/30 00:28:52;;;;;;;2.63;0.45;;;22.50;58.00;;;;;;5024399;28;20034;-45
2022/09/30 00:31:18;;;;;;;0.80;0.40;;;22.50;58.20;;;;;;4962361;28;20039;-45
2022/09/30 00:36:30;;;;;;;0.63;0.40;;;22.50;58.20;;;;;;4962090;28;20061;-46
2022/09/30 00:38:57;;;;;;;1.30;0.57;;;22.50;58.30;;;;;;4962335;29;20066;-46
2022/09/30 00:41:23;;;;;;;0.77;0.30;;;22.50;58.30;;;;;;4961966;28;20863;-45
2022/09/30 00:43:53;;;;;;;0.68;0.40;;;22.50;58.30;;;;;;4962410;28;20094;-46
2022/09/30 00:46:36;;;;;;;0.75;0.30;;;22.50;58.40;;;;;;4963030;29;20875;-45
2022/09/30 00:49:07;;;;;;;0.50;0.30;;;22.50;58.40;;;;;;4960810;28;20050;-45
2022/09/30 00:51:37;;;;;;;0.20;0.20;;;22.50;58.40;;;;;;4943196;28;20039;-46
2022/09/30 00:54:06;;;;;;;0.50;0.30;;;22.50;58.40;;;;;;4946700;29;20036;-47
2022/09/30 00:56:54;;;;;;;0.85;0.20;;;22.50;58.50;;;;;;4946328;28;20047;-47
2022/09/30 00:59:32;;;;;;;0.50;0.40;;;22.50;58.50;;;;;;4960676;28;20074;-47
2022/09/30 01:01:58;;;;;;;0.82;0.35;;;22.40;58.40;;;;;;4945437;28;20615;-47
2022/09/30 01:04:24;;;;;;;0.20;0.17;;;22.50;58.50;;;;;;4945827;29;20031;-48
2022/09/30 01:06:50;;;;;;;0.20;0.20;;;22.40;58.40;;;;;;4946836;29;20032;-45
2022/09/30 01:09:17;;;;;;;0.30;0.30;;;22.40;58.50;;;;;;5011252;28;20040;-46
2022/09/30 01:11:43;;;;;;;0.93;0.30;;;22.40;58.50;;;;;;5007697;28;20042;-46
2022/09/30 01:14:14;;;;;;;2.55;0.30;;;22.40;58.50;;;;;;5029195;28;20041;-47
2022/09/30 01:16:49;;;;;;;0.20;0.20;;;22.40;58.50;;;;;;5022837;28;20037;-47
2022/09/30 01:19:58;;;;;;;0.68;0.30;;;22.40;58.50;;;;;;5021460;28;20045;-46
2022/09/30 01:22:52;;;;;;;0.47;0.22;;;22.40;58.50;;;;;;4974576;28;20042;-49
2022/09/30 01:25:42;;;;;;;0.30;0.20;;;22.40;58.50;;;;;;5014338;28;20025;-47
2022/09/30 01:28:14;;;;;;;0.30;0.20;;;22.40;58.50;;;;;;5020577;28;20058;-52
2022/09/30 01:31:05;;;;;;;0.22;0.20;;;22.40;58.50;;;;;;5021308;28;20482;-48
2022/09/30 01:33:53;;;;;;;0.55;0.25;;;22.40;58.50;;;;;;5019769;28;20067;-48
2022/09/30 01:36:36;;;;;;;1.15;0.20;;;22.40;58.50;;;;;;5014356;28;20037;-47
2022/09/30 01:39:27;;;;;;;0.28;0.25;;;22.30;58.50;;;;;;5024653;28;20057;-47
2022/09/30 01:42:15;;;;;;;0.40;0.30;;;22.30;58.50;;;;;;5026165;28;20513;-48
2022/09/30 01:44:45;;;;;;;0.80;0.28;;;22.30;58.50;;;;;;5016852;28;20092;-49
2022/09/30 01:47:14;;;;;;;0.32;0.20;;;22.30;58.60;;;;;;5033038;28;20056;-48
2022/09/30 01:49:40;;;;;;;0.85;0.30;;;22.30;58.50;;;;;;5018964;28;20042;-48
2022/09/30 01:52:15;;;;;;;0.10;0.10;;;22.30;58.60;;;;;;5021091;28;20030;-51
2022/09/30 01:54:56;;;;;;;0.40;0.30;;;22.30;58.70;;;;;;5021804;28;20038;-48
2022/09/30 01:57:26;;;;;;;0.20;0.20;;;22.30;58.80;;;;;;5031724;28;20029;-49
2022/09/30 02:00:04;;;;;;;0.65;0.28;;;22.30;58.80;;;;;;5003044;28;20039;-47
2022/09/30 02:02:32;;;;;;;0.90;0.20;;;22.30;58.90;;;;;;5037026;28;20043;-51
2022/09/30 02:04:59;;;;;;;;;;;22.20;58.80;;;;;;5030249;28;20472;-51
2022/09/30 02:07:34;;;;;;;0.25;0.20;;;22.20;58.80;;;;;;5037552;28;19913;-49
2022/09/30 02:10:14;;;;;;;0.25;0.20;;;22.20;58.80;;;;;;5020799;28;20033;-48
2022/09/30 02:12:45;;;;;;;0.30;0.20;;;22.20;58.90;;;;;;5018969;28;20033;-51
2022/09/30 02:15:34;;;;;;;0.20;0.20;;;22.20;58.90;;;;;;5002418;28;20111;-46
2022/09/30 02:18:03;;;;;;;0.38;0.30;;;22.20;58.90;;;;;;4971640;28;20038;-48
2022/09/30 02:20:32;;;;;;;0.85;0.20;;;22.20;58.80;;;;;;4978052;28;20527;-52
2022/09/30 02:23:11;;;;;;;0.22;0.20;;;22.20;58.90;;;;;;4975309;28;20043;-51
2022/09/30 02:25:58;;;;;;;0.32;0.17;;;22.20;58.90;;;;;;4973226;28;20041;-51
2022/09/30 02:28:25;;;;;;;1.55;0.20;;;22.10;58.90;;;;;;4964311;28;20142;-43
2022/09/30 02:30:53;;;;;;;0.25;0.20;;;22.10;58.90;;;;;;4978800;28;20182;-56
2022/09/30 02:33:24;;;;;;;0.30;0.20;;;22.10;58.90;;;;;;4956171;28;20028;-47
2022/09/30 02:35:53;;;;;;;0.30;0.30;;;22.10;58.90;;;;;;4976856;28;20042;-52
2022/09/30 02:38:27;;;;;;;0.70;0.20;;;22.10;58.90;;;;;;4974525;28;20050;-50
2022/09/30 02:41:01;;;;;;;0.25;0.20;;;22.10;58.90;;;;;;4977853;28;20030;-46
2022/09/30 02:43:27;;;;;;;0.20;0.20;;;22.10;58.90;;;;;;4962212;28;20130;-45
2022/09/30 02:46:12;;;;;;;0.30;0.20;;;22.10;58.90;;;;;;4973166;28;20034;-50
2022/09/30 02:49:02;;;;;;;0.30;0.20;;;22.10;59.00;;;;;;4974310;28;20897;-46
2022/09/30 02:51:45;;;;;;;0.20;0.20;;;22.10;58.90;;;;;;4977695;28;20090;-47
2022/09/30 02:54:31;;;;;;;0.15;0.15;;;22.00;58.90;;;;;;4966827;28;20035;-48
2022/09/30 02:57:22;;;;;;;0.17;0.17;;;22.00;58.90;;;;;;5012986;28;20104;-49
2022/09/30 02:59:51;;;;;;;1.40;0.20;;;22.00;58.90;;;;;;5006161;28;20153;-43
2022/09/30 03:02:17;;;;;;;0.20;0.20;;;22.00;59.00;;;;;;5020082;28;20022;-44
2022/09/30 03:04:45;;;;;;;0.20;0.20;;;22.00;59.10;;;;;;5016339;28;20453;-44
2022/09/30 03:07:10;;;;;;;;;;;22.00;59.20;;;;;;5020303;28;20108;-45
2022/09/30 03:09:37;;;;;;;0.52;0.20;;;22.00;59.20;;;;;;5052092;28;19910;-46
2022/09/30 03:12:34;;;;;;;0.23;0.20;;;21.90;59.20;;;;;;5027828;28;20058;-45
2022/09/30 03:15:24;;;;;;;0.20;0.20;;;21.90;59.20;;;;;;5023779;28;20089;-52
2022/09/30 03:18:16;;;;;;;0.47;0.20;;;21.90;59.20;;;;;;5016720;28;20065;-50
2022/09/30 03:21:06;;;;;;;0.30;0.30;;;21.90;59.20;;;;;;5026138;28;20094;-48
2022/09/30 03:23:54;;;;;;;0.25;0.20;;;21.90;59.20;;;;;;5036724;28;20037;-50
2022/09/30 03:26:27;;;;;;;1.90;0.40;;;21.90;59.20;;;;;;5023064;28;20051;-47
2022/09/30 03:29:11;;;;;;;0.15;0.15;;;21.90;59.20;;;;;;5028300;28;20414;-48
2022/09/30 03:31:50;;;;;;;0.30;0.30;;;21.90;59.30;;;;;;5033990;28;20033;-48
2022/09/30 03:34:26;;;;;;;0.20;0.20;;;21.80;59.20;;;;;;5013051;28;20118;-47
2022/09/30 03:37:07;;;;;;;0.10;0.10;;;21.80;59.20;;;;;;5013316;28;20041;-47
2022/09/30 03:39:41;;;;;;;0.63;0.28;;;21.80;59.20;;;;;;5016379;28;20037;-47
2022/09/30 03:42:13;;;;;;;0.20;0.20;;;21.80;59.30;;;;;;5023879;28;20038;-50
2022/09/30 03:44:40;;;;;;;1.00;0.13;;;21.80;59.30;;;;;;5023056;28;20046;-53
2022/09/30 03:47:10;;;;;;;;;;;21.80;59.30;;;;;;5024065;28;20026;-50
2022/09/30 03:49:51;;;;;;;0.70;0.20;;;21.80;59.30;;;;;;5025999;28;19917;-53
2022/09/30 03:52:17;;;;;;;0.20;0.20;;;21.80;59.30;;;;;;5022824;28;20094;-51
2022/09/30 03:54:48;;;;;;;0.55;0.20;;;21.70;59.30;;;;;;5024865;28;20486;-49
2022/09/30 03:57:14;;;;;;;0.15;0.10;;;21.70;59.30;;;;;;5038039;28;20041;-49
2022/09/30 03:59:40;;;;;;;0.30;0.17;;;21.70;59.30;;;;;;5035865;28;20037;-49
2022/09/30 04:02:08;;;;;;;0.50;0.20;;;21.70;59.30;;;;;;5041002;28;20026;-50
2022/09/30 04:04:35;;;;;;;0.20;0.20;;;21.70;59.40;;;;;;5034435;28;20604;-49
2022/09/30 04:07:01;;;;;;;0.75;0.13;;;21.70;59.40;;;;;;5024287;28;20041;-52
2022/09/30 04:09:27;;;;;;;0.10;0.10;;;21.70;59.40;;;;;;5027555;28;20025;-48
2022/09/30 04:11:53;;;;;;;0.20;0.20;;;21.70;59.40;;;;;;5026528;28;20138;-51
2022/09/30 04:14:20;;;;;;;0.20;0.20;;;21.70;59.40;;;;;;5024369;28;20714;-52
2022/09/30 04:16:46;;;;;;;0.30;0.20;;;21.70;59.50;;;;;;5027287;28;20485;-50
2022/09/30 04:19:12;;;;;;;0.22;0.20;;;21.70;59.50;;;;;;5023935;28;20041;-47
2022/09/30 04:21:38;;;;;;;0.20;0.20;;;21.60;59.50;;;;;;5024430;28;20083;-49
2022/09/30 04:24:04;;;;;;;0.20;0.20;;;21.60;59.50;;;;;;5023179;28;20041;-46
2022/09/30 04:26:30;;;;;;;0.20;0.20;;;21.60;59.50;;;;;;5021852;28;20029;-47
2022/09/30 04:28:57;;;;;;;0.20;0.20;;;21.60;59.60;;;;;;5023351;28;20109;-49
2022/09/30 04:31:24;;;;;;;0.10;0.10;;;21.60;59.60;;;;;;5012722;28;20061;-47
2022/09/30 04:33:50;;;;;;;0.98;0.30;;;21.60;59.70;;;;;;5019403;28;20026;-47
2022/09/30 04:36:16;;;;;;;0.25;0.20;;;21.60;59.70;;;;;;5027022;28;20030;-46
2022/09/30 04:38:43;;;;;;;0.20;0.20;;;21.60;59.70;;;;;;5027743;28;20022;-46
2022/09/30 04:41:15;;;;;;;0.20;0.20;;;21.60;59.70;;;;;;5025441;28;20033;-44
2022/09/30 04:43:45;;;;;;;0.32;0.20;;;21.60;59.80;;;;;;5033778;28;20025;-51
2022/09/30 04:46:18;;;;;;;0.30;0.22;;;21.50;59.70;;;;;;5029268;28;20029;-51
2022/09/30 04:48:45;;;;;;;0.20;0.20;;;21.50;59.80;;;;;;5025542;28;20022;-49
2022/09/30 04:51:15;;;;;;;0.20;0.20;;;21.50;59.80;;;;;;5017921;28;20482;-48
2022/09/30 04:53:42;;;;;;;0.10;0.10;;;21.50;59.80;;;;;;5022546;28;20034;-50
2022/09/30 04:56:08;;;;;;;0.20;0.20;;;21.50;59.90;;;;;;5022672;28;20033;-48
2022/09/30 04:58:34;;;;;;;0.20;0.20;;;21.50;60.00;;;;;;5038808;28;20140;-48
2022/09/30 05:01:10;;;;;;;0.30;0.20;;;21.50;60.10;;;;;;5030191;28;20028;-47
2022/09/30 05:03:37;;;;;;;0.20;0.20;;;21.50;60.20;;;;;;5019240;28;20030;-48
2022/09/30 05:06:03;;;;;;;0.30;0.20;;;21.50;60.20;;;;;;5022484;28;20026;-50
2022/09/30 05:08:32;;;;;;;0.30;0.20;;;21.50;60.10;;;;;;5020582;28;20034;-48
2022/09/30 05:11:10;;;;;;;0.65;0.22;;;21.50;60.30;;;;;;5036706;28;20060;-52
2022/09/30 05:13:38;;;;;;;0.90;0.20;;;21.50;60.30;;;;;;5024238;28;20026;-50
2022/09/30 05:16:05;;;;;;;0.15;0.10;;;21.50;60.30;;;;;;5043062;28;20041;-47
2022/09/30 05:18:32;;;;;;;0.10;0.10;;;21.50;60.30;;;;;;5026254;28;20136;-48
2022/09/30 05:20:59;;;;;;;0.60;0.20;;;21.50;60.30;;;;;;5029180;28;20045;-47
2022/09/30 05:23:26;;;;;;;0.10;0.10;;;21.40;60.30;;;;;;5028614;28;20045;-47
2022/09/30 05:25:52;;;;;;;0.40;0.20;;;21.40;60.40;;;;;;5023113;28;20028;-48
2022/09/30 05:28:18;;;;;;;1.20;0.15;;;21.40;60.30;;;;;;5033908;28;20089;-49
2022/09/30 05:30:45;;;;;;;0.10;0.10;;;21.40;60.30;;;;;;5026770;28;20072;-52
2022/09/30 05:33:12;;;;;;;0.20;0.10;;;21.40;60.30;;;;;;5007766;28;20042;-47
2022/09/30 05:35:41;;;;;;;0.10;0.10;;;21.40;60.30;;;;;;5020444;28;20046;-48
2022/09/30 05:38:08;;;;;;;0.20;0.20;;;21.40;60.30;;;;;;5018044;28;20108;-46
2022/09/30 05:40:37;;;;;;;0.20;0.10;;;21.40;60.50;;;;;;5022164;28;20045;-48
2022/09/30 05:43:03;;;;;;;0.10;0.10;;;21.40;60.50;;;;;;5033863;28;20032;-46
2022/09/30 05:45:29;;;;;;;0.20;0.20;;;21.40;60.60;;;;;;5020972;28;20041;-50
2022/09/30 05:47:55;;;;;;;0.30;0.20;;;21.40;60.60;;;;;;5030944;28;20034;-48
2022/09/30 05:50:22;;;;;;;0.20;0.20;;;21.40;60.60;;;;;;5052437;28;20028;-47
2022/09/30 05:52:48;;;;;;;0.20;0.20;;;21.40;60.60;;;;;;5021451;28;20049;-47
2022/09/30 05:55:15;;;;;;;0.13;0.10;;;21.40;60.50;;;;;;5022228;28;20405;-46
2022/09/30 05:57:42;;;;;;;0.10;0.10;;;21.30;61.20;;;;;;5021721;28;20164;-50
2022/09/30 06:00:09;;;;;;;0.10;0.10;;;21.40;60.70;;;;;;5013308;28;20045;-48
2022/09/30 06:02:37;;;;;;;0.10;0.10;;;21.30;60.50;;;;;;5026833;28;20038;-45
2022/09/30 06:05:07;;;;;;;0.50;0.20;;;21.30;60.50;;;;;;5041630;28;20038;-47
2022/09/30 06:07:33;;;;;;;0.17;0.17;;;21.40;60.60;;;;;;5018686;28;20030;-48
2022/09/30 06:10:00;;;;;;;0.10;0.10;;;21.30;60.50;;;;;;5028111;28;20029;-46
2022/09/30 06:12:27;;;;;;;0.13;0.10;;;21.30;60.40;;;;;;5028342;28;20038;-49
2022/09/30 06:14:54;;;;;;;0.93;0.10;;;21.30;60.40;;;;;;5021399;28;20042;-47
2022/09/30 06:17:21;;;;;;;0.20;0.20;;;21.30;60.40;;;;;;5040525;28;20040;-48
2022/09/30 06:19:48;;;;;;;0.13;0.10;;;21.30;61.20;;;;;;5025137;28;20041;-46
2022/09/30 06:22:37;;;;;;;0.20;0.10;;;21.30;60.40;;;;;;5028469;28;20065;-45
2022/09/30 06:25:04;;;;;;;0.10;0.10;;;21.30;60.50;;;;;;4936777;29;20036;-46
2022/09/30 06:27:32;;;;;;;0.20;0.20;;;21.30;60.50;;;;;;4940995;29;20035;-45
2022/09/30 06:29:58;;;;;;;0.10;0.10;;;21.30;60.50;;;;;;4937131;29;20058;-45
2022/09/30 06:32:25;;;;;;;0.32;0.20;;;21.30;60.50;;;;;;4943846;29;20032;-46
2022/09/30 06:34:54;;;;;;;0.20;0.20;;;21.30;60.50;;;;;;4940323;29;20047;-46
2022/09/30 06:37:21;;;;;;;0.50;0.30;;;21.30;60.50;;;;;;4941150;29;20036;-45
2022/09/30 06:39:49;;;;;;;0.10;0.10;;;21.20;60.50;;;;;;4939769;29;20079;-44
2022/09/30 06:42:15;;;;;;;0.20;0.10;;;21.20;60.50;;;;;;4956862;29;20035;-46
2022/09/30 06:44:42;;;;;;;0.10;0.10;;;21.20;60.50;;;;;;4947050;29;20034;-45
2022/09/30 06:47:08;;;;;;;0.20;0.10;;;21.20;60.50;;;;;;4951384;29;20063;-44
2022/09/30 06:49:34;;;;;;;0.10;0.10;;;21.20;60.40;;;;;;4943579;29;20063;-46
2022/09/30 06:52:00;;;;;;;0.20;0.20;;;21.20;60.50;;;;;;4945278;29;20035;-47
2022/09/30 06:54:30;;;;;;;0.20;0.17;;;21.20;60.60;;;;;;4947301;29;20047;-46
2022/09/30 06:56:58;;;;;;;0.10;0.10;;;21.20;60.50;;;;;;4960700;28;20034;-47
2022/09/30 06:59:25;;;;;;;0.20;0.20;;;21.20;60.50;;;;;;4939735;29;20040;-46
2022/09/30 07:01:51;;;;;;;0.10;0.10;;;21.20;60.50;;;;;;4974581;28;20049;-48
2022/09/30 07:04:18;;;;;;;0.10;0.10;;;21.20;60.50;;;;;;5021556;28;20045;-47
2022/09/30 07:06:44;;;;;;;1.90;0.10;;;21.20;60.60;;;;;;5025771;28;20890;-47
2022/09/30 07:09:10;;;;;;;0.30;0.20;;;21.10;60.60;;;;;;5024598;28;20045;-46
2022/09/30 07:11:36;;;;;;;0.15;0.15;;;21.10;60.60;;;;;;5026648;28;20026;-46
2022/09/30 07:14:04;;;;;;;0.08;0.08;;;21.20;60.70;;;;;;5024517;28;20044;-46
2022/09/30 07:16:33;;;;;;;;;;;21.10;60.70;;;;;;5037671;28;20103;-48
2022/09/30 07:19:02;;;;;;;0.20;0.10;;;21.10;60.70;;;;;;5005412;28;19918;-47
2022/09/30 07:21:30;;;;;;;0.10;0.10;;;21.10;60.70;;;;;;5022578;28;20036;-45
2022/09/30 07:23:57;;;;;;;0.10;0.10;;;21.10;60.70;;;;;;5034782;28;20038;-46
2022/09/30 07:26:23;;;;;;;0.40;0.20;;;21.10;60.70;;;;;;5040432;28;20036;-46
2022/09/30 07:28:50;;;;;;;0.10;0.10;;;21.10;60.70;;;;;;5043468;28;20080;-45
2022/09/30 07:31:19;;;;;;;0.33;0.10;;;21.10;60.70;;;;;;5031296;28;20049;-44
2022/09/30 07:33:46;;;;;;;0.38;0.20;;;21.10;60.70;;;;;;5026621;28;20287;-43
2022/09/30 07:36:12;;;;;;;0.10;0.10;;;21.10;60.70;;;;;;5036700;28;20026;-45
2022/09/30 07:38:39;;;;;;;0.10;0.10;;;21.00;60.60;;;;;;5022844;28;20118;-44
2022/09/30 07:41:11;;;;;;;0.10;0.10;;;21.10;60.70;;;;;;5024967;28;20060;-43
2022/09/30 07:43:38;;;;;;;0.05;0.05;;;21.10;60.70;;;;;;5023336;28;20061;-43
2022/09/30 07:46:05;;;;;;;;;;;21.00;60.60;;;;;;5033529;28;20090;-44
2022/09/30 07:48:46;;;;;;;0.10;0.10;;;21.00;60.60;;;;;;5033956;28;19945;-47
2022/09/30 07:51:26;;;;;;;0.57;0.17;;;21.00;60.60;;;;;;5014884;28;20371;-44
2022/09/30 07:54:00;;;;;;;0.47;0.20;;;21.00;60.70;;;;;;5022134;28;20466;-46
2022/09/30 07:56:26;;;;;;;0.10;0.10;;;21.00;60.70;;;;;;5023481;28;20042;-46
2022/09/30 07:58:56;;;;;;;0.20;0.20;;;21.00;60.70;;;;;;5020068;28;20073;-47
2022/09/30 08:01:23;;;;;;;0.20;0.20;;;21.00;60.70;;;;;;5004750;28;20037;-44
2022/09/30 08:03:52;;;;;;;0.10;0.10;;;21.00;60.80;;;;;;5023454;28;20033;-47
2022/09/30 08:06:19;;;;;;;0.95;0.20;;;21.00;60.80;;;;;;5014351;28;20018;-43
2022/09/30 08:08:45;;;;;;;0.20;0.20;;;21.00;61.00;;;;;;5024447;28;20022;-45
2022/09/30 08:11:12;;;;;;;0.10;0.10;;;21.00;61.20;;;;;;5035079;28;20042;-45
2022/09/30 08:13:38;;;;;;;0.20;0.20;;;20.90;61.10;;;;;;5032747;28;20034;-46
2022/09/30 08:16:05;;;;;;;0.38;0.20;;;20.90;61.10;;;;;;5029636;28;20101;-44
2022/09/30 08:18:31;;;;;;;0.10;0.10;;;21.00;61.10;;;;;;5023248;28;20041;-43
2022/09/30 08:21:04;;;;;;;1.17;0.10;;;21.00;61.00;;;;;;5023847;28;20102;-51
2022/09/30 08:23:31;;;;;;;1.45;0.38;;;21.00;61.00;;;;;;5026577;28;20030;-46
2022/09/30 08:26:07;;;;;;;2.40;0.55;;;20.90;61.10;;;;;;5026204;28;20026;-44
2022/09/30 08:28:34;;;;;;;8.80;1.33;;;20.90;61.40;;;;;;5026853;28;20053;-44
2022/09/30 08:31:26;;;;;;;10.95;2.22;;;20.90;61.50;;;;;;5029412;28;20037;-45
2022/09/30 08:33:53;;;;;;;7.50;1.80;;;20.90;61.90;;;;;;5025264;28;20038;-42
2022/09/30 08:36:21;;;;;;;10.60;1.50;;;20.90;62.10;;;;;;5034667;28;20033;-61
2022/09/30 08:38:47;;;;;;;8.93;1.65;;;20.90;62.20;;;;;;5022845;28;20042;-44
2022/09/30 08:41:21;;;;;;;9.80;1.50;;;21.00;62.40;;;;;;5023470;28;20052;-62
2022/09/30 08:44:11;;;;;;;5.43;1.10;;;21.00;62.30;;;;;;5026124;28;20500;-63
2022/09/30 08:46:40;;;;;;;8.55;1.30;;;20.90;62.30;;;;;;5025194;28;20836;-60
2022/09/30 08:49:46;;;;;;;7.15;1.20;;;20.90;62.20;;;;;;5022103;28;20034;-60
2022/09/30 08:52:21;;;;;;;8.02;1.20;;;20.90;62.00;;;;;;4973215;28;20047;-60
2022/09/30 08:54:50;;;;;;;5.40;1.20;;;21.00;62.00;;;;;;4972721;28;20038;-66
2022/09/30 08:57:16;;;;;;;4.85;1.17;;;21.00;62.60;;;;;;4964214;28;20034;-65
2022/09/30 08:59:46;;;;;;;5.38;1.23;;;20.90;61.80;;;;;;4990528;28;20049;-66
2022/09/30 09:02:19;;;;;;;5.47;1.10;;;21.00;61.80;;;;;;4989209;28;20098;-60
2022/09/30 09:04:46;;;;;;;3.42;0.90;;;20.90;61.60;;;;;;4979111;28;20026;-60
2022/09/30 09:07:30;;;;;;;3.08;0.63;;;20.90;61.60;;;;;;4974851;28;20062;-59
2022/09/30 09:10:18;;;;;;;4.45;1.15;;;21.00;61.60;;;;;;4978945;28;20034;-60
2022/09/30 09:12:48;;;;;;;3.03;0.85;;;20.90;61.50;;;;;;4987962;28;20054;-61
2022/09/30 09:15:35;;;;;;;4.22;0.80;;;20.90;61.40;;;;;;4974046;28;20038;-60
2022/09/30 09:18:21;;;;;;;2.77;0.73;;;20.90;61.40;;;;;;4993240;28;20042;-59
2022/09/30 09:20:54;;;;;;;1.65;0.60;;;20.90;61.30;;;;;;4990977;28;20129;-60
2022/09/30 09:23:20;;;;;;;3.58;0.93;;;20.90;61.30;;;;;;4988912;28;20089;-60
2022/09/30 09:25:49;;;;;;;1.93;0.87;;;20.90;61.20;;;;;;4988214;28;20034;-60
2022/09/30 09:28:40;;;;;;;2.03;0.75;;;20.90;61.20;;;;;;5010744;28;20065;-60
2022/09/30 09:31:13;;;;;;;3.90;0.60;;;20.90;61.10;;;;;;5032240;28;20037;-63
2022/09/30 09:33:39;;;;;;;1.38;0.80;;;20.90;61.10;;;;;;5038954;28;20041;-63
2022/09/30 09:36:13;;;;;;;1.30;0.60;;;20.90;61.00;;;;;;5026863;28;20233;-61
2022/09/30 09:38:52;;;;;;;2.05;0.70;;;20.90;61.00;;;;;;5028178;28;20833;-63
2022/09/30 09:41:47;;;;;;;1.92;0.52;;;20.90;61.00;;;;;;5028723;28;20029;-63
2022/09/30 09:44:27;;;;;;;2.75;0.80;;;20.90;61.00;;;;;;5038302;28;20063;-62
2022/09/30 09:46:58;;;;;;;1.65;0.57;;;20.90;60.90;;;;;;5023343;28;20034;-62
2022/09/30 09:49:28;;;;;;;2.45;0.50;;;20.90;60.90;;;;;;5028057;28;20033;-62
2022/09/30 09:52:13;;;;;;;1.67;0.85;;;20.90;60.90;;;;;;5026470;28;20612;-62
2022/09/30 09:54:51;;;;;;;1.58;0.52;;;20.90;60.90;;;;;;5027187;28;20057;-65
2022/09/30 09:57:17;;;;;;;;;;;20.90;60.90;;;;;;5021710;28;20026;-63
2022/09/30 10:01:07;;;;;;;1.88;0.70;;;20.90;61.00;;;;;;5029353;28;19921;-63
2022/09/30 10:03:23;;;;;;;1.38;0.65;;;20.90;60.90;;;;;;5027420;28;20052;-63
2022/09/30 10:06:02;;;;;;;0.80;0.50;;;20.90;60.90;;;;;;5024387;28;20044;-62
2022/09/30 10:08:30;;;;;;;1.45;0.70;;;20.90;60.90;;;;;;5024221;28;20114;-65
2022/09/30 10:11:03;;;;;;;1.88;0.65;;;20.90;60.90;;;;;;5019816;28;20045;-65
2022/09/30 10:13:43;;;;;;;1.88;0.80;;;20.90;60.80;;;;;;5021960;28;20110;-65
2022/09/30 10:16:34;;;;;;;0.88;0.60;;;20.90;60.80;;;;;;5021437;28;20026;-62
2022/09/30 10:19:00;;;;;;;1.60;0.50;;;20.90;60.80;;;;;;5010890;28;20058;-59
2022/09/30 10:21:27;;;;;;;0.87;0.57;;;20.90;60.80;;;;;;5015391;28;20029;-62
2022/09/30 10:23:54;;;;;;;1.25;0.50;;;20.80;60.80;;;;;;5020692;28;20041;-49
2022/09/30 10:26:21;;;;;;;1.38;0.73;;;20.80;60.70;;;;;;5022059;28;20061;-54
2022/09/30 10:28:53;;;;;;;2.00;0.40;;;20.90;60.70;;;;;;5020268;28;20128;-47
2022/09/30 10:31:30;;;;;;;4.43;0.90;;;20.80;60.60;;;;;;5019254;28;20051;-47
2022/09/30 10:34:18;;;;;;;6.47;0.85;;;20.90;60.80;;;;;;5019114;28;20034;-44
2022/09/30 10:36:44;;;;;;;2.58;0.73;;;20.80;61.00;;;;;;5018455;28;20037;-44
2022/09/30 10:39:29;;;;;;;11.48;0.90;;;20.80;61.00;;;;;;5024225;28;20037;-46
2022/09/30 10:42:20;;;;;;;7.60;1.05;;;20.80;61.30;;;;;;5024444;28;20129;-45
2022/09/30 10:44:56;;;;;;;6.32;0.90;;;20.90;61.50;;;;;;5010235;28;20033;-39
2022/09/30 10:47:27;;;;;;;6.10;0.90;;;20.90;61.50;;;;;;5037667;28;20059;-69
2022/09/30 10:49:55;;;;;;;8.40;1.20;;;20.90;61.50;;;;;;5016904;28;20060;-57
2022/09/30 10:52:25;;;;;;;5.10;0.90;;;20.90;61.50;;;;;;5017403;28;20026;-56
2022/09/30 10:54:53;;;;;;;8.02;0.80;;;20.90;61.50;;;;;;5026484;28;20042;-61
2022/09/30 10:57:23;;;;;;;6.45;0.85;;;20.90;61.50;;;;;;5034248;28;20093;-60
2022/09/30 10:59:54;;;;;;;15.50;1.70;;;20.90;61.40;;;;;;5023797;28;20109;-61
2022/09/30 11:02:30;;;;;;;9.35;2.00;;;20.90;61.40;;;;;;5026042;28;20034;-61
2022/09/30 11:05:12;;;;;;;10.60;1.92;;;20.90;61.40;;;;;;5025081;28;20083;-61
2022/09/30 11:08:02;;;;;;;8.27;1.77;;;20.90;61.30;;;;;;5024367;28;20037;-59
2022/09/30 11:10:50;;;;;;;7.38;1.90;;;20.90;61.20;;;;;;5038298;28;20038;-60
2022/09/30 11:13:27;;;;;;;7.78;1.52;;;20.90;61.10;;;;;;5023682;28;20034;-61
2022/09/30 11:15:56;;;;;;;6.65;1.70;;;20.90;61.10;;;;;;5006275;28;20068;-61
2022/09/30 11:18:43;;;;;;;4.63;1.50;;;20.90;61.00;;;;;;5006769;28;20025;-62
2022/09/30 11:21:13;;;;;;;5.68;1.50;;;20.90;60.90;;;;;;5015681;28;20045;-61
2022/09/30 11:23:45;;;;;;;7.15;1.45;;;20.90;60.90;;;;;;5023863;28;20026;-61
2022/09/30 11:26:31;;;;;;;6.80;1.33;;;20.90;60.80;;;;;;5028651;28;20030;-61
2022/09/30 11:29:20;;;;;;;7.13;1.30;;;20.80;60.70;;;;;;5023743;28;20516;-61
2022/09/30 11:31:46;;;;;;;3.90;1.20;;;20.80;60.70;;;;;;5026785;28;20087;-61
2022/09/30 11:34:18;;;;;;;5.40;1.20;;;20.80;60.70;;;;;;5035249;28;20053;-61
2022/09/30 11:37:06;;;;;;;5.07;1.05;;;20.80;60.60;;;;;;5023463;28;20030;-61
2022/09/30 11:39:55;;;;;;;4.53;1.02;;;20.80;60.50;;;;;;5043585;28;20041;-62
2022/09/30 11:43:19;;;;;;;2.47;1.10;;;20.90;60.50;;;;;;5028364;28;20061;-61
2022/09/30 11:46:11;;;;;;;4.05;0.90;;;20.80;60.30;;;;;;4944968;29;20237;-61
2022/09/30 11:48:59;;;;;;;4.38;1.30;;;20.80;60.30;;;;;;4942565;29;20050;-61
2022/09/30 11:51:35;;;;;;;2.47;0.90;;;20.80;60.30;;;;;;4925654;29;20032;-63
2022/09/30 11:54:29;;;;;;;5.32;1.30;;;20.80;60.30;;;;;;4935437;29;20070;-62
2022/09/30 11:57:14;;;;;;;3.63;0.90;;;20.80;60.30;;;;;;4925513;29;20047;-61
2022/09/30 11:59:47;;;;;;;2.53;0.98;;;20.80;60.20;;;;;;4926711;29;20071;-63
2022/09/30 12:02:39;;;;;;;1.65;0.90;;;20.80;60.30;;;;;;4942726;29;20043;-62
2022/09/30 12:05:11;;;;;;;2.45;0.80;;;20.80;60.20;;;;;;4927573;29;20158;-61
2022/09/30 12:07:45;;;;;;;3.72;1.00;;;20.80;60.20;;;;;;4925381;29;20047;-61
2022/09/30 12:10:24;;;;;;;1.70;0.82;;;20.80;60.10;;;;;;4934123;29;20032;-61
2022/09/30 12:13:17;;;;;;;4.45;0.93;;;20.70;60.00;;;;;;4934319;29;20473;-61
2022/09/30 12:15:44;;;;;;;2.30;0.77;;;20.70;60.00;;;;;;4868314;29;20586;-62
2022/09/30 12:18:18;;;;;;;2.90;0.90;;;20.70;60.00;;;;;;4869902;29;20037;-61
2022/09/30 12:20:51;;;;;;;1.45;0.70;;;20.80;59.90;;;;;;4926197;29;20054;-62
2022/09/30 12:23:31;;;;;;;2.42;0.88;;;20.70;59.90;;;;;;4909612;29;20031;-61
2022/09/30 12:25:59;;;;;;;3.55;1.13;;;20.70;59.90;;;;;;4946146;28;20034;-61
2022/09/30 12:31:32;;;;;;;3.05;0.90;;;20.70;59.90;;;;;;4947874;29;20126;-61
2022/09/30 12:34:20;;;;;;;1.95;0.80;;;20.70;59.90;;;;;;4947210;29;20074;-61
2022/09/30 12:36:55;;;;;;;2.60;0.60;;;20.70;59.90;;;;;;4953915;29;20042;-61
2022/09/30 12:39:39;;;;;;;1.98;0.90;;;20.70;59.90;;;;;;4926518;29;20051;-61
2022/09/30 12:42:44;;;;;;;1.50;0.77;;;20.70;59.90;;;;;;4953290;29;20055;-62
2022/09/30 12:45:31;;;;;;;2.10;0.65;;;20.70;59.90;;;;;;4944312;29;20050;-62
2022/09/30 12:47:59;;;;;;;2.88;0.70;;;20.70;59.90;;;;;;4951094;29;20019;-61
2022/09/30 12:50:39;;;;;;;2.30;0.70;;;20.70;59.90;;;;;;4940648;29;20063;-62
2022/09/30 12:53:31;;;;;;;1.60;0.80;;;20.60;59.80;;;;;;4998723;28;20063;-62
2022/09/30 12:56:16;;;;;;;1.27;0.60;;;20.70;59.90;;;;;;5025615;28;20064;-62
2022/09/30 12:58:48;;;;;;;1.33;0.65;;;20.60;59.80;;;;;;5034913;28;20037;-61
2022/09/30 13:01:21;;;;;;;1.15;0.60;;;20.70;59.90;;;;;;5021572;28;20026;-62
2022/09/30 13:06:46;;;;;;;1.75;0.70;;;20.60;59.80;;;;;;5037911;28;20055;-62
2022/09/30 13:09:15;;;;;;;0.88;0.60;;;20.60;59.90;;;;;;5003670;28;20026;-62
2022/09/30 13:11:54;;;;;;;1.38;0.80;;;20.60;59.80;;;;;;5013531;28;20029;-63
2022/09/30 13:14:42;;;;;;;1.90;0.80;;;20.60;59.90;;;;;;5020049;28;20026;-63
2022/09/30 13:17:09;;;;;;;1.35;0.60;;;20.60;59.90;;;;;;5031979;28;20139;-64
2022/09/30 13:19:42;;;;;;;0.70;0.55;;;20.60;59.90;;;;;;5009543;28;20097;-63
2022/09/30 13:22:22;;;;;;;0.95;0.63;;;20.60;59.80;;;;;;5035821;28;20032;-63
2022/09/30 13:24:59;;;;;;;1.33;0.68;;;20.60;59.80;;;;;;5025667;28;20409;-62
2022/09/30 13:27:38;;;;;;;0.82;0.50;;;20.60;59.80;;;;;;5043273;28;20121;-62
2022/09/30 13:30:16;;;;;;;0.90;0.68;;;20.60;59.80;;;;;;5033573;28;20784;-62